aviador You're here:

RJOO Decoded Metar

OSAKA in JAPAN
Report Time2014-11-24 04:00:00
UTC Time2014-11-24 04:45:08
Flight Rules vfr VFR
WindVRB at 03 kt
Visibility9999 m
Phenomena:N/A
Clouds:Few 030 Hf
Expected CloudBase > 5,600 ft AGL from Temp-Dew spread
CeilingNone
Temp20°C (ISA +5)
Dew Point06°C (40% RH)
AAT18.0°C
QNH1020 hPa
Density Alt538 ft
Elevation49 ft
Report Wrong Elevation
Raw Report
METAR RJOO 240400Z VRB03KT 9999 FEW030 20/06 Q1020 RMK 1CU030 A3012=

Extra information for RJOO:More info

Metar Taf Metar & Taf Last 4 Metars F.Rules Stats Wind Profile Meteogram Temp Stats Airport Information Weather charts Add Link Nearby VenuesMetar ALERT Operation Metar Decoded Social comments